Time;durP1;ratioP1;P1;durP2;ratioP2;P2;SDS_P1;SDS_P2;PMS_P1;PMS_P2;Temp;Humidity;BMP_temperature;BMP_pressure;BME280_temperature;BME280_humidity;BME280_pressure;Samples;Min_cycle;Max_cycle;Signal;HPM_P1;HPM_P2
2023/07/31 00:00:55;;;;;;;6.88;4.40;;;16.50;99.90;;;;;;5093263;28;20047;-76
2023/07/31 00:03:21;;;;;;;7.88;5.00;;;16.50;99.90;;;;;;5098353;28;20653;-76
2023/07/31 00:05:46;;;;;;;9.27;4.75;;;16.50;99.90;;;;;;5093671;28;20474;-77
2023/07/31 00:08:12;;;;;;;8.02;4.80;;;16.50;99.90;;;;;;5075767;28;20363;-76
2023/07/31 00:10:37;;;;;;;7.60;5.10;;;16.50;99.90;;;;;;5107616;28;20466;-75
2023/07/31 00:13:03;;;;;;;6.90;4.68;;;16.50;99.90;;;;;;5104254;28;20478;-75
2023/07/31 00:15:29;;;;;;;6.70;4.38;;;16.50;99.90;;;;;;5092626;28;20047;-76
2023/07/31 00:17:55;;;;;;;6.57;4.70;;;16.40;99.90;;;;;;5113232;28;20048;-75
2023/07/31 00:20:21;;;;;;;6.18;5.15;;;16.40;99.90;;;;;;5106316;28;20340;-78
2023/07/31 00:22:46;;;;;;;6.15;4.70;;;16.40;99.90;;;;;;5094381;28;20044;-76
2023/07/31 00:25:12;;;;;;;6.93;4.40;;;16.40;99.90;;;;;;5099414;28;20482;-78
2023/07/31 00:27:38;;;;;;;13.57;4.80;;;16.30;99.90;;;;;;5093403;28;20048;-77
2023/07/31 00:30:04;;;;;;;9.00;4.60;;;16.30;99.90;;;;;;5104202;28;20040;-75
2023/07/31 00:32:29;;;;;;;10.27;4.82;;;16.30;99.90;;;;;;5110172;28;20044;-75
2023/07/31 00:34:55;;;;;;;6.20;4.13;;;16.30;99.90;;;;;;5113270;28;20043;-77
2023/07/31 00:37:21;;;;;;;7.30;4.60;;;16.30;99.90;;;;;;5103632;28;20069;-75
2023/07/31 00:39:46;;;;;;;12.27;4.40;;;16.20;99.90;;;;;;5110861;28;20044;-76
2023/07/31 00:42:12;;;;;;;11.65;4.75;;;16.20;99.90;;;;;;5112782;28;20072;-76
2023/07/31 00:44:37;;;;;;;6.03;3.72;;;16.20;99.90;;;;;;5100515;28;20032;-77
2023/07/31 00:47:03;;;;;;;9.38;4.22;;;16.10;99.90;;;;;;5103366;28;20043;-77
2023/07/31 00:49:29;;;;;;;6.38;4.25;;;16.10;99.90;;;;;;5114057;28;20046;-77
2023/07/31 00:51:57;;;;;;;4.88;3.92;;;16.00;99.90;;;;;;5113581;28;20427;-76
2023/07/31 00:54:23;;;;;;;5.22;4.07;;;16.00;99.90;;;;;;5100049;28;20474;-76
2023/07/31 00:56:52;;;;;;;8.93;4.20;;;16.00;99.90;;;;;;5101249;28;20046;-77
2023/07/31 00:59:18;;;;;;;8.80;4.30;;;15.90;99.90;;;;;;5113521;28;20054;-76
2023/07/31 01:01:45;;;;;;;6.20;4.78;;;15.90;99.90;;;;;;5113344;28;20028;-77
2023/07/31 01:04:12;;;;;;;6.32;3.92;;;15.90;99.90;;;;;;5099398;28;20036;-77
2023/07/31 01:07:09;;;;;;;6.82;3.53;;;15.90;99.90;;;;;;5114219;28;20036;-76
2023/07/31 01:09:41;;;;;;;7.30;3.75;;;15.90;99.90;;;;;;5111538;28;20047;-77
2023/07/31 01:12:09;;;;;;;6.40;3.40;;;15.90;99.90;;;;;;5103444;28;20059;-77
2023/07/31 01:14:34;;;;;;;7.35;4.30;;;15.90;99.90;;;;;;5094012;28;20390;-76
2023/07/31 01:17:00;;;;;;;6.15;4.38;;;15.90;99.90;;;;;;5101026;28;20077;-77
2023/07/31 01:19:30;;;;;;;5.05;3.45;;;15.80;99.90;;;;;;5096723;28;20052;-77
2023/07/31 01:22:17;;;;;;;5.35;3.50;;;15.90;99.90;;;;;;5109421;28;20036;-77
2023/07/31 01:25:09;;;;;;;7.47;3.53;;;15.90;99.90;;;;;;5097117;28;20058;-79
2023/07/31 01:27:44;;;;;;;5.32;3.33;;;15.80;99.90;;;;;;5113646;28;20036;-77
2023/07/31 01:30:17;;;;;;;4.57;2.83;;;15.80;99.90;;;;;;5115422;27;20051;-76
2023/07/31 01:32:47;;;;;;;7.00;2.80;;;15.80;99.90;;;;;;5113610;28;20110;-77
2023/07/31 01:35:12;;;;;;;4.75;3.47;;;15.80;99.90;;;;;;5116763;28;20134;-77
2023/07/31 01:37:38;;;;;;;4.85;3.30;;;15.80;99.90;;;;;;5109280;28;20202;-75
2023/07/31 01:40:06;;;;;;;10.93;3.78;;;15.80;99.90;;;;;;5096449;28;20070;-75
2023/07/31 01:42:32;;;;;;;5.43;3.65;;;15.80;99.90;;;;;;5104794;28;20079;-75
2023/07/31 01:44:57;;;;;;;5.30;3.83;;;15.90;99.90;;;;;;5100940;28;20064;-76
2023/07/31 01:47:23;;;;;;;6.38;4.25;;;15.80;99.90;;;;;;5107874;28;20084;-76
2023/07/31 01:49:49;;;;;;;5.90;3.88;;;15.80;99.90;;;;;;5117830;28;20039;-77
2023/07/31 01:52:15;;;;;;;6.20;4.07;;;15.80;99.90;;;;;;5122590;28;20067;-77
2023/07/31 01:54:40;;;;;;;5.18;3.67;;;15.80;99.90;;;;;;5117540;28;20050;-76
2023/07/31 01:57:06;;;;;;;8.57;3.50;;;15.80;99.90;;;;;;5117685;28;20047;-76
2023/07/31 01:59:32;;;;;;;5.38;3.58;;;15.80;99.90;;;;;;5115785;27;20122;-77
2023/07/31 02:01:58;;;;;;;5.35;3.45;;;15.80;99.90;;;;;;5110279;28;20055;-77
2023/07/31 02:04:23;;;;;;;6.45;3.70;;;15.80;99.90;;;;;;5110919;28;20071;-77
2023/07/31 02:06:49;;;;;;;7.82;4.13;;;15.80;99.90;;;;;;5114833;28;20039;-77
2023/07/31 02:09:14;;;;;;;4.78;3.20;;;15.80;99.90;;;;;;5114694;28;20048;-77
2023/07/31 02:11:40;;;;;;;6.50;3.00;;;15.80;99.90;;;;;;5096755;28;20039;-75
2023/07/31 02:14:06;;;;;;;4.65;3.25;;;15.80;99.90;;;;;;5118218;28;20040;-76
2023/07/31 02:16:31;;;;;;;4.30;2.53;;;15.80;99.90;;;;;;5116505;28;20066;-76
2023/07/31 02:18:57;;;;;;;4.13;2.75;;;15.80;99.90;;;;;;5118940;28;20105;-78
2023/07/31 02:21:23;;;;;;;3.58;2.38;;;15.80;99.90;;;;;;5121179;28;20085;-76
2023/07/31 02:23:48;;;;;;;4.65;2.50;;;15.80;99.90;;;;;;5106529;28;20082;-78
2023/07/31 02:26:14;;;;;;;5.82;2.80;;;15.80;99.90;;;;;;5095130;28;20044;-78
2023/07/31 02:28:42;;;;;;;3.58;2.40;;;15.80;99.90;;;;;;5115961;28;20082;-77
2023/07/31 02:31:08;;;;;;;5.07;2.55;;;15.80;99.90;;;;;;5116904;28;20525;-78
2023/07/31 02:33:34;;;;;;;3.30;2.30;;;15.70;99.90;;;;;;5116554;28;20039;-77
2023/07/31 02:35:59;;;;;;;3.45;2.03;;;15.80;99.90;;;;;;5116576;28;20130;-77
2023/07/31 02:38:25;;;;;;;4.47;2.58;;;15.70;99.90;;;;;;5101037;28;20043;-77
2023/07/31 02:40:51;;;;;;;4.35;2.53;;;15.80;99.90;;;;;;5118999;28;20092;-77
2023/07/31 02:43:16;;;;;;;3.30;2.30;;;15.70;99.90;;;;;;5120445;28;20044;-77
2023/07/31 02:45:42;;;;;;;4.07;2.20;;;15.80;99.90;;;;;;5118771;28;20123;-77
2023/07/31 02:48:08;;;;;;;3.85;2.53;;;15.80;99.90;;;;;;5113473;28;20119;-78
2023/07/31 02:50:34;;;;;;;4.60;2.22;;;15.70;99.90;;;;;;5116374;28;20039;-77
2023/07/31 02:53:00;;;;;;;5.10;2.40;;;15.80;99.90;;;;;;5105668;28;20533;-76
2023/07/31 02:55:25;;;;;;;8.77;2.50;;;15.80;99.90;;;;;;5096052;28;20496;-76
2023/07/31 02:57:52;;;;;;;5.32;2.30;;;15.70;99.90;;;;;;5095165;28;20079;-77
2023/07/31 03:00:18;;;;;;;6.05;2.13;;;15.70;99.90;;;;;;5095173;28;20070;-76
2023/07/31 03:02:43;;;;;;;4.53;2.00;;;15.80;99.90;;;;;;5108337;28;20536;-75
2023/07/31 03:05:09;;;;;;;4.40;2.00;;;15.70;99.90;;;;;;5113800;28;20071;-76
2023/07/31 03:07:35;;;;;;;7.72;2.03;;;15.80;99.90;;;;;;5114815;28;20044;-75
2023/07/31 03:10:00;;;;;;;7.13;2.28;;;15.80;99.90;;;;;;5115394;28;20157;-76
2023/07/31 03:12:27;;;;;;;5.00;1.95;;;15.70;99.90;;;;;;5100311;28;20040;-75
2023/07/31 03:14:52;;;;;;;5.40;2.20;;;15.80;99.90;;;;;;5106574;28;20046;-75
2023/07/31 03:17:18;;;;;;;8.57;2.42;;;15.70;99.90;;;;;;5114179;28;20126;-76
2023/07/31 03:19:44;;;;;;;4.82;2.50;;;15.70;99.90;;;;;;5105423;28;20123;-76
2023/07/31 03:22:12;;;;;;;5.60;2.20;;;15.70;99.90;;;;;;5094172;28;20085;-76
2023/07/31 03:24:38;;;;;;;10.20;2.55;;;15.70;99.90;;;;;;5094848;28;20040;-76
2023/07/31 03:27:04;;;;;;;6.53;2.15;;;15.70;99.90;;;;;;5088407;28;20545;-76
2023/07/31 03:29:30;;;;;;;3.28;1.77;;;15.70;99.90;;;;;;5107748;28;20040;-77
2023/07/31 03:31:55;;;;;;;6.30;1.88;;;15.70;99.90;;;;;;5093200;28;20379;-76
2023/07/31 03:34:21;;;;;;;4.78;2.20;;;15.70;99.90;;;;;;5098096;28;20039;-75
2023/07/31 03:36:47;;;;;;;5.90;2.00;;;15.70;99.90;;;;;;5113587;28;20470;-75
2023/07/31 03:39:13;;;;;;;2.47;1.90;;;15.70;99.90;;;;;;5112939;28;20118;-75
2023/07/31 03:41:38;;;;;;;4.57;1.83;;;15.70;99.90;;;;;;5114170;28;20039;-75
2023/07/31 03:44:04;;;;;;;2.88;1.80;;;15.70;99.90;;;;;;5112751;28;20050;-76
2023/07/31 03:46:30;;;;;;;5.35;1.90;;;15.70;99.90;;;;;;5098510;28;20490;-76
2023/07/31 03:48:55;;;;;;;6.50;2.00;;;15.70;99.90;;;;;;5100215;28;20051;-75
2023/07/31 03:51:21;;;;;;;4.13;2.00;;;15.60;99.90;;;;;;5098333;28;20048;-75
2023/07/31 03:53:46;;;;;;;2.40;1.60;;;15.70;99.90;;;;;;5112004;28;20509;-75
2023/07/31 03:56:12;;;;;;;2.65;1.55;;;15.70;99.90;;;;;;5101433;28;20051;-75
2023/07/31 03:58:38;;;;;;;3.97;2.10;;;15.70;99.90;;;;;;5087143;28;20040;-76
2023/07/31 04:01:03;;;;;;;4.80;1.85;;;15.70;99.90;;;;;;5107117;28;20040;-75
2023/07/31 04:03:30;;;;;;;5.20;2.00;;;15.70;99.90;;;;;;5104823;28;20032;-75
2023/07/31 04:05:56;;;;;;;3.25;1.70;;;15.70;99.90;;;;;;5109629;28;20131;-74
2023/07/31 04:08:22;;;;;;;4.28;2.10;;;15.70;99.90;;;;;;5113318;28;20501;-74
2023/07/31 04:10:48;;;;;;;5.10;1.70;;;15.70;99.90;;;;;;5106035;28;20075;-75
2023/07/31 04:13:14;;;;;;;3.80;1.80;;;15.70;99.90;;;;;;5114101;28;20039;-74
2023/07/31 04:15:40;;;;;;;3.78;1.80;;;15.70;99.90;;;;;;5115062;28;20499;-74
2023/07/31 04:18:06;;;;;;;4.38;1.83;;;15.70;99.90;;;;;;5101114;28;20044;-75
2023/07/31 04:20:31;;;;;;;5.22;2.25;;;15.70;99.90;;;;;;5100822;28;20039;-75
2023/07/31 04:22:57;;;;;;;3.80;2.00;;;15.70;99.90;;;;;;5106865;28;20035;-74
2023/07/31 04:25:23;;;;;;;5.97;1.80;;;15.70;99.90;;;;;;5115241;28;20039;-75
2023/07/31 04:27:48;;;;;;;5.03;2.20;;;15.70;99.90;;;;;;5112701;28;20700;-74
2023/07/31 04:30:14;;;;;;;5.57;1.77;;;15.60;99.90;;;;;;5094888;28;20040;-75
2023/07/31 04:32:40;;;;;;;3.92;1.77;;;15.70;99.90;;;;;;5095809;28;20120;-75
2023/07/31 04:35:05;;;;;;;2.92;1.95;;;15.70;99.90;;;;;;5107798;28;20093;-76
2023/07/31 04:37:31;;;;;;;2.72;1.52;;;15.70;99.90;;;;;;5114196;28;20086;-74
2023/07/31 04:39:57;;;;;;;3.70;1.92;;;15.70;99.90;;;;;;5107563;28;20028;-75
2023/07/31 04:42:22;;;;;;;3.90;1.63;;;15.70;99.90;;;;;;5093860;28;20040;-74
2023/07/31 04:44:48;;;;;;;7.50;1.73;;;15.70;99.90;;;;;;5079414;28;20043;-76
2023/07/31 04:47:14;;;;;;;3.08;1.60;;;15.70;99.90;;;;;;5110791;28;20035;-76
2023/07/31 04:49:39;;;;;;;4.97;1.65;;;15.70;99.90;;;;;;5113019;28;20101;-75
2023/07/31 04:52:05;;;;;;;3.67;1.80;;;15.70;99.90;;;;;;5097955;28;20131;-74
2023/07/31 04:54:31;;;;;;;2.70;1.50;;;15.70;99.90;;;;;;5117855;28;20044;-74
2023/07/31 04:56:57;;;;;;;2.67;1.55;;;15.70;99.90;;;;;;5114119;28;20043;-74
2023/07/31 04:59:22;;;;;;;2.83;1.42;;;15.60;99.90;;;;;;5118082;28;20076;-75
2023/07/31 05:01:48;;;;;;;4.95;1.70;;;15.70;99.90;;;;;;5114564;28;20044;-75
2023/07/31 05:04:14;;;;;;;3.65;1.63;;;15.70;99.90;;;;;;5108180;28;20044;-75
2023/07/31 05:06:40;;;;;;;2.92;1.58;;;15.70;99.90;;;;;;5116619;28;20136;-76
2023/07/31 05:09:06;;;;;;;3.50;1.45;;;15.70;99.90;;;;;;5117505;28;20040;-75
2023/07/31 05:11:31;;;;;;;3.10;1.52;;;15.80;99.90;;;;;;5116451;28;20040;-75
2023/07/31 05:13:57;;;;;;;2.70;1.52;;;15.80;99.90;;;;;;5111764;28;20055;-75
2023/07/31 05:16:23;;;;;;;2.72;1.70;;;15.80;99.90;;;;;;5103787;28;20070;-75
2023/07/31 05:18:49;;;;;;;6.43;1.65;;;15.80;99.90;;;;;;5113697;28;20054;-74
2023/07/31 05:21:14;;;;;;;5.88;1.70;;;15.80;99.90;;;;;;5102345;28;20048;-73
2023/07/31 05:23:40;;;;;;;4.07;1.40;;;15.80;99.90;;;;;;5096674;28;20051;-74
2023/07/31 05:26:06;;;;;;;5.82;1.60;;;15.80;99.90;;;;;;5107506;28;20090;-75
2023/07/31 05:28:35;;;;;;;2.70;1.20;;;15.80;99.90;;;;;;5117038;28;20039;-75
2023/07/31 05:31:04;;;;;;;1.98;1.10;;;15.80;99.90;;;;;;5096374;28;20051;-75
2023/07/31 05:33:30;;;;;;;3.55;1.40;;;15.80;99.90;;;;;;5110423;28;20081;-73
2023/07/31 05:35:56;;;;;;;3.08;1.00;;;15.80;99.90;;;;;;5103720;28;20473;-74
2023/07/31 05:38:22;;;;;;;2.38;1.17;;;15.80;99.90;;;;;;5098900;28;20127;-75
2023/07/31 05:40:48;;;;;;;5.47;1.73;;;15.80;99.90;;;;;;5117509;28;20044;-75
2023/07/31 05:43:14;;;;;;;5.63;1.65;;;15.90;99.90;;;;;;5105703;28;20036;-74
2023/07/31 05:45:41;;;;;;;2.25;1.25;;;15.90;99.90;;;;;;5096371;28;20040;-73
2023/07/31 05:48:07;;;;;;;2.03;1.30;;;15.90;99.90;;;;;;5111455;28;20134;-74
2023/07/31 05:50:33;;;;;;;3.53;1.65;;;15.90;99.90;;;;;;5098003;28;20115;-75
2023/07/31 05:52:58;;;;;;;4.85;1.67;;;15.90;99.90;;;;;;5116589;28;20456;-74
2023/07/31 05:55:26;;;;;;;8.80;1.98;;;15.90;99.90;;;;;;5105417;28;20040;-75
2023/07/31 05:57:52;;;;;;;;;;;15.90;99.90;;;;;;5096433;28;20086;-74
2023/07/31 06:00:18;;;;;;;3.85;1.80;;;15.90;99.90;;;;;;5117244;28;19967;-74
2023/07/31 06:02:44;;;;;;;3.00;1.52;;;15.90;99.90;;;;;;5097195;28;20110;-75
2023/07/31 06:05:10;;;;;;;3.80;1.60;;;15.90;99.90;;;;;;5116054;28;20089;-75
2023/07/31 06:07:35;;;;;;;6.47;1.75;;;15.90;99.90;;;;;;5116982;28;20055;-75
2023/07/31 06:10:04;;;;;;;2.63;1.50;;;15.90;99.90;;;;;;5115431;28;20043;-74
2023/07/31 06:12:31;;;;;;;3.97;1.90;;;16.00;99.90;;;;;;5115495;28;20051;-74
2023/07/31 06:14:57;;;;;;;6.65;2.25;;;16.00;99.90;;;;;;5116548;28;20040;-74
2023/07/31 06:17:22;;;;;;;10.13;3.40;;;16.00;99.90;;;;;;5113500;28;20054;-74
2023/07/31 06:19:49;;;;;;;11.40;3.75;;;16.00;99.90;;;;;;5116788;28;20051;-74
2023/07/31 06:22:14;;;;;;;6.25;2.55;;;16.10;99.90;;;;;;5112498;28;20051;-73
2023/07/31 06:24:40;;;;;;;6.75;2.72;;;16.10;99.90;;;;;;5115612;28;20044;-75
2023/07/31 06:27:06;;;;;;;8.32;3.00;;;16.10;99.90;;;;;;5117519;28;20418;-75
2023/07/31 06:29:32;;;;;;;8.93;3.30;;;16.10;99.90;;;;;;5117049;28;20047;-76
2023/07/31 06:31:58;;;;;;;7.43;3.35;;;16.10;99.90;;;;;;5105261;28;20099;-75
2023/07/31 06:34:24;;;;;;;11.05;4.13;;;16.20;99.90;;;;;;5117353;28;20039;-74
2023/07/31 06:36:49;;;;;;;12.60;4.40;;;16.20;99.90;;;;;;5113293;28;20035;-75
2023/07/31 06:39:15;;;;;;;17.25;4.72;;;16.20;99.90;;;;;;5115142;28;20483;-74
2023/07/31 06:41:41;;;;;;;16.08;5.00;;;16.30;99.90;;;;;;5117058;28;20042;-74
2023/07/31 06:44:07;;;;;;;16.98;5.68;;;16.30;99.90;;;;;;5111599;28;20474;-75
2023/07/31 06:46:32;;;;;;;27.08;6.75;;;16.30;99.90;;;;;;5095829;28;20040;-75
2023/07/31 06:48:58;;;;;;;30.33;7.32;;;16.40;99.90;;;;;;5116228;28;20047;-75
2023/07/31 06:51:23;;;;;;;22.65;6.90;;;16.40;99.90;;;;;;5115338;28;20040;-75
2023/07/31 06:53:49;;;;;;;28.02;7.45;;;16.50;99.90;;;;;;5113643;28;20040;-74
2023/07/31 06:56:15;;;;;;;25.10;7.22;;;16.50;99.90;;;;;;5099159;28;20089;-75
2023/07/31 06:58:40;;;;;;;23.70;8.13;;;16.60;99.90;;;;;;5098845;28;20052;-75
2023/07/31 07:01:06;;;;;;;33.58;8.50;;;16.70;99.90;;;;;;5102534;28;20171;-75
2023/07/31 07:03:32;;;;;;;31.77;8.80;;;16.80;99.90;;;;;;5108841;28;20039;-75
2023/07/31 07:05:58;;;;;;;34.08;8.75;;;16.90;99.90;;;;;;5109777;28;20040;-77
2023/07/31 07:08:25;;;;;;;34.10;8.50;;;16.90;99.90;;;;;;5114037;28;20036;-76
2023/07/31 07:10:50;;;;;;;28.30;9.13;;;17.00;99.90;;;;;;5113746;28;20055;-77
2023/07/31 07:13:18;;;;;;;27.55;8.27;;;17.10;99.90;;;;;;5094740;28;20036;-76
2023/07/31 07:15:47;;;;;;;27.33;7.70;;;17.10;99.90;;;;;;5095384;28;20128;-76
2023/07/31 07:18:13;;;;;;;52.90;8.85;;;17.10;99.90;;;;;;5108872;28;20036;-77
2023/07/31 07:20:39;;;;;;;20.90;7.82;;;17.10;99.90;;;;;;5094960;28;20040;-77
2023/07/31 07:23:05;;;;;;;26.80;7.60;;;17.10;99.90;;;;;;5108987;28;20039;-77
2023/07/31 07:25:31;;;;;;;31.40;8.07;;;17.10;99.90;;;;;;5117128;28;20036;-75
2023/07/31 07:27:56;;;;;;;27.73;7.65;;;17.10;99.90;;;;;;5097193;28;20036;-76
2023/07/31 07:30:24;;;;;;;28.48;8.00;;;17.10;99.90;;;;;;5103256;27;20040;-76
2023/07/31 07:32:50;;;;;;;;;;;17.10;99.90;;;;;;5110039;28;20069;-75
2023/07/31 07:35:16;;;;;;;30.05;8.00;;;17.10;99.90;;;;;;5116815;28;19924;-77
2023/07/31 07:37:41;;;;;;;27.50;8.27;;;17.10;99.90;;;;;;5115598;28;20055;-74
2023/07/31 07:40:08;;;;;;;30.80;9.32;;;17.10;99.90;;;;;;5115653;28;20039;-76
2023/07/31 07:42:33;;;;;;;24.38;8.50;;;17.00;99.90;;;;;;5115815;28;20083;-76
2023/07/31 07:45:03;;;;;;;35.58;8.57;;;17.00;99.90;;;;;;5117469;28;20117;-75
2023/07/31 07:47:28;;;;;;;34.38;9.40;;;17.10;99.90;;;;;;5098165;28;20055;-76
2023/07/31 07:49:54;;;;;;;31.58;9.18;;;17.00;99.90;;;;;;5113841;28;20044;-76
2023/07/31 07:52:20;;;;;;;25.33;8.35;;;17.00;99.90;;;;;;5098402;28;20040;-75
2023/07/31 07:54:45;;;;;;;32.90;8.80;;;17.00;99.90;;;;;;5117924;28;20067;-76
2023/07/31 07:57:11;;;;;;;26.80;7.65;;;17.00;99.90;;;;;;5108491;28;20059;-75
2023/07/31 07:59:36;;;;;;;16.85;5.18;;;17.10;99.90;;;;;;5101789;28;20572;-74
2023/07/31 08:02:02;;;;;;;10.65;4.30;;;17.00;99.90;;;;;;5111180;28;20792;-74
2023/07/31 08:04:28;;;;;;;10.52;3.55;;;17.00;99.90;;;;;;5112344;28;20131;-74
2023/07/31 08:06:54;;;;;;;9.93;3.47;;;17.00;99.90;;;;;;5116607;28;20086;-74
2023/07/31 08:09:19;;;;;;;7.70;2.83;;;17.10;99.90;;;;;;5114363;28;20383;-75
2023/07/31 08:11:45;;;;;;;7.13;2.65;;;17.10;99.90;;;;;;5115478;28;20504;-73
2023/07/31 08:14:11;;;;;;;6.30;2.58;;;17.00;99.90;;;;;;5116662;28;20043;-74
2023/07/31 08:16:38;;;;;;;5.10;2.53;;;17.10;99.90;;;;;;5117035;28;20043;-74
2023/07/31 08:19:04;;;;;;;5.63;2.25;;;17.10;99.90;;;;;;5108071;28;20066;-76
2023/07/31 08:21:33;;;;;;;3.83;2.22;;;17.10;99.90;;;;;;5097287;28;20052;-75
2023/07/31 08:23:58;;;;;;;4.68;2.40;;;17.10;99.90;;;;;;5107928;28;20404;-76
2023/07/31 08:26:26;;;;;;;5.47;2.40;;;17.10;99.90;;;;;;5118835;28;20136;-74
2023/07/31 08:28:52;;;;;;;5.70;2.40;;;17.20;99.90;;;;;;5117544;28;20036;-75
2023/07/31 08:31:18;;;;;;;5.55;2.67;;;17.30;99.90;;;;;;5100402;28;20050;-74
2023/07/31 08:33:44;;;;;;;4.70;2.10;;;17.30;99.90;;;;;;5106443;28;20044;-74
2023/07/31 08:36:10;;;;;;;5.68;2.20;;;17.30;99.90;;;;;;5097361;28;20044;-74
2023/07/31 08:38:35;;;;;;;2.90;1.85;;;17.40;99.90;;;;;;5108384;28;20036;-74
2023/07/31 08:41:05;;;;;;;6.90;2.45;;;17.40;99.90;;;;;;5120482;28;20051;-73
2023/07/31 08:43:32;;;;;;;3.55;1.90;;;17.40;99.90;;;;;;5119474;28;20044;-76
2023/07/31 08:45:58;;;;;;;4.07;2.17;;;17.40;99.90;;;;;;5115020;28;20032;-74
2023/07/31 08:48:25;;;;;;;4.22;2.13;;;17.50;99.90;;;;;;5103056;28;20043;-75
2023/07/31 08:50:54;;;;;;;6.18;1.98;;;17.50;99.90;;;;;;5119062;28;20051;-75
2023/07/31 08:53:19;;;;;;;4.95;2.20;;;17.60;99.90;;;;;;5114036;28;20032;-76
2023/07/31 08:55:46;;;;;;;4.03;1.80;;;17.70;99.90;;;;;;5118941;28;20062;-76
2023/07/31 08:58:12;;;;;;;4.35;1.80;;;17.70;99.90;;;;;;5117232;28;20047;-76
2023/07/31 09:00:40;;;;;;;2.05;1.50;;;17.60;99.90;;;;;;5116237;28;20071;-76
2023/07/31 09:03:13;;;;;;;4.38;2.10;;;17.70;99.90;;;;;;5117986;28;20565;-76
2023/07/31 09:05:45;;;;;;;5.60;2.40;;;17.70;99.90;;;;;;5118483;28;20039;-77
2023/07/31 09:08:13;;;;;;;3.58;1.80;;;17.70;99.90;;;;;;5097419;28;20043;-74
2023/07/31 09:10:43;;;;;;;4.03;1.98;;;17.70;99.90;;;;;;5116775;28;20512;-75
2023/07/31 09:13:13;;;;;;;5.03;1.88;;;17.70;99.90;;;;;;5117872;28;20055;-75
2023/07/31 09:15:39;;;;;;;3.42;1.63;;;17.70;99.90;;;;;;5103555;28;20097;-76
2023/07/31 09:18:07;;;;;;;2.90;1.70;;;17.80;99.90;;;;;;5108782;28;20059;-76
2023/07/31 09:20:33;;;;;;;3.53;1.38;;;17.80;99.90;;;;;;5102882;28;20047;-76
2023/07/31 09:23:08;;;;;;;3.30;1.77;;;17.80;99.90;;;;;;5108438;28;20048;-74
2023/07/31 09:25:33;;;;;;;4.72;1.73;;;17.90;99.90;;;;;;5107701;28;20047;-75
2023/07/31 09:28:10;;;;;;;2.60;1.50;;;17.90;99.90;;;;;;5109175;28;20044;-75
2023/07/31 09:30:49;;;;;;;4.10;1.60;;;17.90;99.90;;;;;;5115787;28;20048;-75
2023/07/31 09:33:15;;;;;;;3.90;1.92;;;17.90;99.90;;;;;;5110592;28;20078;-76
2023/07/31 09:35:41;;;;;;;2.50;1.48;;;17.90;99.90;;;;;;5113960;28;20040;-76
2023/07/31 09:38:10;;;;;;;8.77;2.45;;;18.00;99.90;;;;;;5115258;28;20039;-75
2023/07/31 09:40:38;;;;;;;4.75;1.85;;;18.00;99.90;;;;;;5114482;28;20169;-74
2023/07/31 09:43:06;;;;;;;4.75;1.70;;;18.00;99.90;;;;;;5116119;28;20046;-74
2023/07/31 09:45:36;;;;;;;;;;;18.00;99.90;;;;;;5114094;28;20110;-73
2023/07/31 09:48:02;;;;;;;4.53;1.55;;;18.00;99.90;;;;;;5121104;28;19927;-74
2023/07/31 09:50:29;;;;;;;3.95;1.55;;;18.00;99.90;;;;;;5121242;28;20078;-73
2023/07/31 09:52:55;;;;;;;1.95;1.40;;;18.00;99.90;;;;;;5106084;28;20048;-75
2023/07/31 09:55:20;;;;;;;2.58;1.40;;;18.00;99.90;;;;;;5114620;28;20050;-73
2023/07/31 09:57:47;;;;;;;12.18;1.90;;;18.00;99.90;;;;;;5111862;28;20070;-74
2023/07/31 10:00:16;;;;;;;6.23;1.60;;;18.00;99.90;;;;;;5101608;28;20073;-73
2023/07/31 10:02:47;;;;;;;2.88;1.15;;;18.00;99.90;;;;;;5114655;28;20293;-74
2023/07/31 10:05:16;;;;;;;4.80;1.25;;;18.00;99.90;;;;;;5101126;28;20433;-75
2023/07/31 10:08:03;;;;;;;4.15;1.30;;;18.00;99.90;;;;;;5110124;28;20096;-75
2023/07/31 10:10:29;;;;;;;3.28;1.20;;;18.10;99.90;;;;;;5095543;28;20490;-73
2023/07/31 10:12:56;;;;;;;4.40;1.20;;;18.20;99.90;;;;;;5095909;28;20048;-76
2023/07/31 10:15:23;;;;;;;4.35;1.13;;;18.20;99.90;;;;;;5086949;28;20047;-75
2023/07/31 10:17:50;;;;;;;2.60;0.90;;;18.20;99.90;;;;;;5056898;28;1120480;-75
2023/07/31 10:20:17;;;;;;;2.65;0.75;;;18.30;99.90;;;;;;5109893;28;20131;-75
2023/07/31 10:22:43;;;;;;;4.15;1.20;;;18.30;99.90;;;;;;5118065;28;20489;-75
2023/07/31 10:25:09;;;;;;;1.02;0.60;;;18.30;99.90;;;;;;5102321;28;20048;-74
2023/07/31 10:27:38;;;;;;;1.70;0.90;;;18.30;99.90;;;;;;5112403;28;20048;-74
2023/07/31 10:30:05;;;;;;;;;;;18.30;99.90;;;;;;5114687;28;20036;-74
2023/07/31 10:32:31;;;;;;;5.75;1.42;;;18.30;99.90;;;;;;5098744;28;19920;-74
2023/07/31 10:34:57;;;;;;;3.10;1.02;;;18.30;99.90;;;;;;5113568;28;20047;-75
2023/07/31 10:37:29;;;;;;;1.77;1.00;;;18.30;99.90;;;;;;5100212;28;20040;-74
2023/07/31 10:40:03;;;;;;;2.83;0.75;;;18.30;99.90;;;;;;5116884;28;20036;-74
2023/07/31 10:42:38;;;;;;;2.53;0.88;;;18.30;99.90;;;;;;5115993;28;20043;-74
2023/07/31 10:45:10;;;;;;;3.42;0.90;;;18.40;99.90;;;;;;5099740;28;20474;-73
2023/07/31 10:47:46;;;;;;;2.72;1.20;;;18.40;99.90;;;;;;5107293;28;20047;-73
2023/07/31 10:50:21;;;;;;;3.67;1.33;;;18.40;99.90;;;;;;5117837;28;20047;-73
2023/07/31 10:52:51;;;;;;;12.73;2.20;;;18.40;99.90;;;;;;5112387;28;20036;-73
2023/07/31 10:55:43;;;;;;;1.48;0.77;;;18.40;99.90;;;;;;5110855;28;20054;-74
2023/07/31 10:58:11;;;;;;;1.27;0.90;;;18.40;99.90;;;;;;5115162;28;20047;-74
2023/07/31 11:00:42;;;;;;;1.50;0.93;;;18.40;99.90;;;;;;5115064;28;20044;-75
2023/07/31 11:03:18;;;;;;;6.45;1.20;;;18.40;99.90;;;;;;5111796;28;20040;-73
2023/07/31 11:05:55;;;;;;;3.08;1.20;;;18.50;99.90;;;;;;5096003;28;20032;-74
2023/07/31 11:08:26;;;;;;;2.15;1.10;;;18.60;99.90;;;;;;5112672;28;20136;-72
2023/07/31 11:11:06;;;;;;;3.08;1.38;;;18.60;99.90;;;;;;5108984;28;20048;-74
2023/07/31 11:13:49;;;;;;;2.25;1.38;;;18.70;99.90;;;;;;5095692;28;20060;-73
2023/07/31 11:16:15;;;;;;;4.07;1.42;;;18.70;99.90;;;;;;5095386;28;20390;-74
2023/07/31 11:18:43;;;;;;;4.68;1.70;;;18.80;99.90;;;;;;5100577;28;20048;-75
2023/07/31 11:21:16;;;;;;;2.25;1.48;;;18.90;99.90;;;;;;5096525;28;20075;-75
2023/07/31 11:23:45;;;;;;;3.08;1.55;;;18.90;99.90;;;;;;5094457;28;20191;-73
2023/07/31 11:26:12;;;;;;;2.35;1.63;;;19.00;99.90;;;;;;5091288;28;20079;-73
2023/07/31 11:28:38;;;;;;;9.00;2.00;;;18.90;99.90;;;;;;5111783;28;20097;-74
2023/07/31 11:31:04;;;;;;;5.30;1.80;;;18.90;99.90;;;;;;5116351;28;20104;-74
2023/07/31 11:33:30;;;;;;;7.30;1.85;;;18.90;99.90;;;;;;5110693;28;20039;-75
2023/07/31 11:35:56;;;;;;;2.63;1.50;;;18.90;99.90;;;;;;5115558;28;20126;-75
2023/07/31 11:38:30;;;;;;;4.70;1.77;;;18.90;99.90;;;;;;5117845;28;20083;-73
2023/07/31 11:40:58;;;;;;;2.47;1.60;;;18.90;99.90;;;;;;5113424;27;20040;-75
2023/07/31 11:43:24;;;;;;;5.68;1.70;;;18.80;99.90;;;;;;5115773;28;20043;-74
2023/07/31 11:45:55;;;;;;;6.90;1.90;;;18.70;99.90;;;;;;5113794;28;20036;-74
2023/07/31 11:48:29;;;;;;;6.65;1.90;;;18.70;99.90;;;;;;5102233;28;20401;-74
2023/07/31 11:50:57;;;;;;;5.75;2.00;;;18.70;99.90;;;;;;5104974;28;20504;-73
2023/07/31 11:53:43;;;;;;;4.20;1.80;;;18.60;99.90;;;;;;5097864;28;20044;-73
2023/07/31 11:56:11;;;;;;;4.03;1.45;;;18.60;99.90;;;;;;5111266;28;20462;-75
2023/07/31 11:58:38;;;;;;;3.38;1.75;;;18.60;99.90;;;;;;5119207;28;20044;-75
2023/07/31 12:01:05;;;;;;;5.53;1.90;;;18.70;99.90;;;;;;5105053;28;20051;-74
2023/07/31 12:03:32;;;;;;;3.53;1.70;;;18.70;99.90;;;;;;5113415;28;20075;-74
2023/07/31 12:05:58;;;;;;;6.88;2.30;;;18.80;99.90;;;;;;5104851;28;20077;-74
2023/07/31 12:08:25;;;;;;;4.70;1.80;;;18.80;99.90;;;;;;5115798;28;20112;-73
2023/07/31 12:10:53;;;;;;;5.10;1.80;;;18.80;99.90;;;;;;5112059;28;20508;-74
2023/07/31 12:13:26;;;;;;;7.43;2.45;;;18.90;99.90;;;;;;5095948;28;20123;-73
2023/07/31 12:16:00;;;;;;;5.88;2.53;;;19.00;99.90;;;;;;5093370;28;20542;-74
2023/07/31 12:18:27;;;;;;;4.65;1.95;;;19.00;99.90;;;;;;5099523;28;20145;-74
2023/07/31 12:20:58;;;;;;;3.15;2.10;;;19.10;99.90;;;;;;5112044;28;20039;-74
2023/07/31 12:23:30;;;;;;;4.38;2.35;;;19.10;99.90;;;;;;5100390;28;20040;-74
2023/07/31 12:26:12;;;;;;;4.15;1.75;;;19.20;99.90;;;;;;5104745;28;20042;-74
2023/07/31 12:28:49;;;;;;;3.72;1.70;;;19.20;99.90;;;;;;5080516;28;20475;-74
2023/07/31 12:31:19;;;;;;;8.07;1.98;;;19.20;99.90;;;;;;5100653;28;20513;-75
2023/07/31 12:33:47;;;;;;;10.52;1.90;;;19.20;99.90;;;;;;5102753;28;20481;-75
2023/07/31 12:36:18;;;;;;;8.80;2.10;;;19.10;99.90;;;;;;5113634;28;20047;-75
2023/07/31 12:38:44;;;;;;;5.82;2.10;;;19.10;99.90;;;;;;5109986;28;20040;-74
2023/07/31 12:41:10;;;;;;;7.63;2.15;;;19.10;99.90;;;;;;5102605;28;20048;-76
2023/07/31 12:43:38;;;;;;;3.78;2.03;;;19.10;99.90;;;;;;5111638;28;20082;-74
2023/07/31 12:46:04;;;;;;;14.82;3.20;;;19.10;99.90;;;;;;5099730;28;20443;-75